Time;durP1;ratioP1;P1;durP2;ratioP2;P2;SDS_P1;SDS_P2;PMS_P1;PMS_P2;Temp;Humidity;BMP_temperature;BMP_pressure;BME280_temperature;BME280_humidity;BME280_pressure;Samples;Min_cycle;Max_cycle;Signal;HPM_P1;HPM_P2
2022/05/10 00:00:21;;;;;;;11.40;3.50;;;;;;;7.98;64.09;100901.38;5095954;28;20172;-77
2022/05/10 00:03:07;;;;;;;10.05;3.42;;;;;;;8.00;64.75;100904.91;5097443;28;20500;-76
2022/05/10 00:05:37;;;;;;;9.93;3.58;;;;;;;8.01;65.09;100903.97;5095387;28;20048;-77
2022/05/10 00:08:06;;;;;;;9.35;3.78;;;;;;;8.03;65.79;100906.59;5095467;28;20051;-75
2022/05/10 00:10:36;;;;;;;7.57;3.58;;;;;;;7.82;65.58;100909.84;5095482;28;20047;-76
2022/05/10 00:13:04;;;;;;;10.05;3.63;;;;;;;7.65;66.43;100901.38;5095473;28;20044;-75
2022/05/10 00:15:31;;;;;;;14.20;3.80;;;;;;;7.61;67.86;100907.78;5095168;28;20056;-75
2022/05/10 00:17:59;;;;;;;9.25;3.60;;;;;;;7.56;68.47;100907.00;5095449;28;20599;-76
2022/05/10 00:20:28;;;;;;;14.18;4.60;;;;;;;7.56;68.03;100901.63;5095197;28;20400;-74
2022/05/10 00:22:56;;;;;;;11.95;5.05;;;;;;;7.76;66.97;100896.59;5095403;28;20409;-74
2022/05/10 00:25:26;;;;;;;18.52;5.20;;;;;;;7.87;66.60;100907.03;5095484;28;20055;-74
2022/05/10 00:27:54;;;;;;;14.70;4.85;;;;;;;7.69;66.44;100892.31;5096458;28;20051;-76
2022/05/10 00:30:22;;;;;;;11.90;5.25;;;;;;;7.73;66.15;100890.41;5095445;28;20048;-73
2022/05/10 00:32:50;;;;;;;12.73;4.68;;;;;;;7.60;66.62;100889.88;5095345;28;20043;-74
2022/05/10 00:35:19;;;;;;;11.88;4.60;;;;;;;7.68;66.36;100888.72;5094729;28;20040;-74
2022/05/10 00:37:50;;;;;;;11.25;4.82;;;;;;;7.48;66.94;100889.25;5095122;28;20052;-76
2022/05/10 00:40:20;;;;;;;11.70;4.97;;;;;;;7.46;67.31;100888.41;5096357;28;20055;-74
2022/05/10 00:42:53;;;;;;;11.60;4.97;;;;;;;7.47;67.86;100892.00;5095324;28;20130;-75
2022/05/10 00:45:25;;;;;;;13.75;5.32;;;;;;;7.63;67.22;100884.41;5095516;28;20051;-74
2022/05/10 00:47:58;;;;;;;10.52;4.82;;;;;;;7.71;66.95;100885.06;5095438;28;20497;-74
2022/05/10 00:50:30;;;;;;;11.05;4.57;;;;;;;7.64;67.19;100889.72;5096310;28;20040;-74
2022/05/10 00:53:04;;;;;;;12.07;5.70;;;;;;;7.39;68.20;100882.34;5094588;28;20044;-74
2022/05/10 00:55:36;;;;;;;14.27;6.10;;;;;;;7.70;67.39;100880.63;5095186;28;20044;-74
2022/05/10 00:58:08;;;;;;;12.40;5.25;;;;;;;7.33;68.25;100879.78;5095309;28;20044;-74
2022/05/10 01:00:36;;;;;;;12.10;5.45;;;;;;;7.21;68.53;100881.03;5095768;28;20094;-75
2022/05/10 01:03:10;;;;;;;11.90;5.35;;;;;;;7.29;68.10;100874.56;5094379;28;20040;-74
2022/05/10 01:05:41;;;;;;;15.98;6.10;;;;;;;7.16;68.93;100869.50;5094815;28;20070;-74
2022/05/10 01:08:15;;;;;;;13.05;5.75;;;;;;;7.27;69.41;100869.22;5094615;28;20060;-74
2022/05/10 01:10:47;;;;;;;14.25;6.32;;;;;;;7.35;68.26;100872.59;5094896;28;20058;-74
2022/05/10 01:13:18;;;;;;;12.40;6.10;;;;;;;7.08;68.99;100869.69;5095517;28;20054;-74
2022/05/10 01:15:53;;;;;;;11.70;5.20;;;;;;;7.03;69.65;100868.03;5095360;28;20056;-74
2022/05/10 01:18:23;;;;;;;12.85;5.18;;;;;;;7.15;69.36;100865.06;5095629;28;20048;-74
2022/05/10 01:20:56;;;;;;;12.68;5.65;;;;;;;7.10;68.24;100867.84;5094243;28;20047;-74
2022/05/10 01:23:44;;;;;;;11.27;4.45;;;;;;;7.37;67.57;100869.84;5094735;28;20075;-74
2022/05/10 01:26:17;;;;;;;10.45;4.10;;;;;;;7.15;68.13;100862.38;5094373;28;20081;-74
2022/05/10 01:28:48;;;;;;;9.75;4.03;;;;;;;7.07;67.90;100854.50;5094484;28;20499;-73
2022/05/10 01:31:20;;;;;;;11.75;3.72;;;;;;;6.95;68.57;100855.69;5095321;28;20048;-74
2022/05/10 01:33:48;;;;;;;12.00;4.30;;;;;;;7.00;68.54;100857.38;5095711;28;20044;-74
2022/05/10 01:36:25;;;;;;;11.43;4.32;;;;;;;6.91;69.70;100855.78;5093973;28;20039;-73
2022/05/10 01:38:54;;;;;;;;;;;;;;;6.82;68.95;100862.28;5093811;28;20165;-74
2022/05/10 01:41:28;;;;;;;11.55;4.95;;;;;;;6.94;69.03;100859.28;5093595;28;19927;-74
2022/05/10 01:44:05;;;;;;;12.52;5.28;;;;;;;6.87;69.54;100856.78;5094194;28;20044;-74
2022/05/10 01:46:33;;;;;;;13.02;4.40;;;;;;;7.08;69.35;100850.88;5094261;28;20097;-74
2022/05/10 01:49:10;;;;;;;13.43;5.35;;;;;;;6.94;69.27;100850.38;5093431;28;20135;-75
2022/05/10 01:51:46;;;;;;;14.45;4.40;;;;;;;6.66;71.77;100853.72;5093610;28;20040;-74
2022/05/10 01:54:38;;;;;;;9.20;4.47;;;;;;;6.66;73.63;100846.53;5095693;28;20493;-75
2022/05/10 01:57:06;;;;;;;11.77;4.00;;;;;;;6.58;74.34;100844.97;5031297;28;20057;-76
2022/05/10 01:59:37;;;;;;;9.70;4.00;;;;;;;6.28;74.88;100851.00;5031089;28;20084;-76
2022/05/10 02:02:05;;;;;;;13.20;4.70;;;;;;;6.51;72.90;100846.91;5031553;28;20060;-76
2022/05/10 02:04:36;;;;;;;11.57;4.63;;;;;;;6.59;72.62;100847.59;5031266;28;20053;-75
2022/05/10 02:07:06;;;;;;;10.75;4.60;;;;;;;6.56;72.45;100847.69;5032832;28;20457;-76
2022/05/10 02:09:39;;;;;;;11.82;4.63;;;;;;;6.45;73.34;100845.25;5031579;28;20470;-77
2022/05/10 02:12:11;;;;;;;11.13;4.20;;;;;;;6.69;72.69;100839.31;5031401;28;20060;-76
2022/05/10 02:14:44;;;;;;;9.25;4.00;;;;;;;6.61;72.43;100842.22;5031378;28;20557;-74
2022/05/10 02:17:15;;;;;;;11.02;4.25;;;;;;;6.51;72.20;100844.22;5025393;28;20073;-75
2022/05/10 02:19:47;;;;;;;10.90;4.47;;;;;;;6.47;72.79;100840.72;5011515;28;20053;-75
2022/05/10 02:22:19;;;;;;;8.98;4.00;;;;;;;6.27;72.22;100843.00;5012493;28;20064;-73
2022/05/10 02:24:51;;;;;;;11.70;4.15;;;;;;;6.00;73.63;100843.53;5012109;28;20152;-75
2022/05/10 02:27:22;;;;;;;9.52;4.22;;;;;;;6.08;75.26;100840.69;5012223;28;20054;-74
2022/05/10 02:29:54;;;;;;;11.32;4.00;;;;;;;6.02;75.13;100843.53;5010987;28;20050;-75
2022/05/10 02:35:13;;;;;;;10.65;4.30;;;;;;;5.89;75.32;100835.72;5063741;28;20060;-74
2022/05/10 02:37:41;;;;;;;9.88;4.43;;;;;;;5.99;75.40;100831.06;5072819;28;20053;-75
2022/05/10 02:40:13;;;;;;;9.63;4.30;;;;;;;5.91;75.82;100827.63;5072996;28;20051;-75
2022/05/10 02:42:42;;;;;;;9.23;3.72;;;;;;;5.93;75.27;100834.72;5088171;28;20165;-75
2022/05/10 02:45:12;;;;;;;8.13;3.60;;;;;;;5.89;75.61;100830.34;5092224;28;20044;-76
2022/05/10 02:47:43;;;;;;;9.55;3.63;;;;;;;6.01;74.98;100828.34;5092056;28;20118;-76
2022/05/10 02:50:16;;;;;;;12.65;4.50;;;;;;;5.85;75.06;100830.44;5093059;28;20040;-75
2022/05/10 02:52:44;;;;;;;9.57;4.55;;;;;;;5.99;73.46;100831.06;5092539;28;20044;-76
2022/05/10 02:55:16;;;;;;;9.75;4.28;;;;;;;5.82;74.48;100827.81;5092624;28;20044;-76
2022/05/10 02:57:43;;;;;;;11.20;4.53;;;;;;;6.02;74.52;100822.97;5094432;28;20060;-74
2022/05/10 03:00:13;;;;;;;11.18;4.18;;;;;;;6.08;74.15;100817.47;5092680;28;20044;-74
2022/05/10 03:02:44;;;;;;;10.18;4.40;;;;;;;5.99;74.13;100823.00;5092213;28;20054;-75
2022/05/10 03:05:13;;;;;;;9.90;4.25;;;;;;;5.99;74.67;100823.00;5094278;28;20050;-74
2022/05/10 03:07:41;;;;;;;12.40;4.40;;;;;;;6.03;75.32;100829.19;5092546;28;20048;-75
2022/05/10 03:10:09;;;;;;;9.57;4.10;;;;;;;6.03;75.02;100824.72;5092698;28;20055;-76
2022/05/10 03:12:37;;;;;;;11.45;4.60;;;;;;;5.99;75.49;100824.78;5092933;28;20047;-75
2022/05/10 03:15:05;;;;;;;10.18;4.25;;;;;;;6.08;75.72;100829.97;5092302;28;20052;-75
2022/05/10 03:17:34;;;;;;;11.90;4.50;;;;;;;5.98;75.74;100829.28;5082796;28;20044;-74
2022/05/10 03:20:03;;;;;;;12.93;4.78;;;;;;;5.96;75.57;100823.06;5072635;28;20055;-75
2022/05/10 03:22:31;;;;;;;10.85;4.10;;;;;;;5.91;76.64;100825.84;5072645;28;20048;-75
2022/05/10 03:24:58;;;;;;;8.77;4.22;;;;;;;5.98;77.65;100823.91;5074150;28;20623;-75
2022/05/10 03:27:26;;;;;;;13.75;4.60;;;;;;;5.84;78.22;100831.34;5075667;28;20052;-74
2022/05/10 03:29:53;;;;;;;9.95;4.15;;;;;;;5.68;78.57;100828.09;5076200;28;20048;-73
2022/05/10 03:32:21;;;;;;;9.77;4.40;;;;;;;5.50;78.52;100831.13;5076196;28;20048;-75
2022/05/10 03:34:57;;;;;;;14.90;4.85;;;;;;;5.32;78.61;100840.41;5076021;28;20072;-75
2022/05/10 03:37:26;;;;;;;9.90;4.80;;;;;;;5.29;78.06;100827.06;5076767;28;20049;-74
2022/05/10 03:39:54;;;;;;;11.93;4.88;;;;;;;5.50;76.79;100830.25;5076035;28;20052;-75
2022/05/10 03:42:22;;;;;;;12.77;5.22;;;;;;;5.69;75.97;100829.88;5088862;28;20052;-76
2022/05/10 03:44:52;;;;;;;12.30;5.47;;;;;;;5.60;76.56;100823.78;5096277;28;20044;-75
2022/05/10 03:47:21;;;;;;;11.80;5.50;;;;;;;5.32;77.24;100820.75;5095963;28;20439;-73
2022/05/10 03:49:50;;;;;;;11.20;5.15;;;;;;;5.49;78.04;100828.47;5096180;28;20393;-75
2022/05/10 03:52:18;;;;;;;15.15;5.50;;;;;;;5.49;78.75;100831.16;5095791;28;20048;-75
2022/05/10 03:54:45;;;;;;;14.93;5.45;;;;;;;5.62;78.33;100827.31;5096003;28;20047;-74
2022/05/10 03:57:13;;;;;;;13.75;5.63;;;;;;;5.76;77.65;100821.69;5095592;28;20044;-74
2022/05/10 03:59:42;;;;;;;12.45;5.38;;;;;;;5.83;77.88;100819.75;5095945;28;20474;-76
2022/05/10 04:02:11;;;;;;;11.80;5.20;;;;;;;5.91;77.39;100823.16;5095815;28;20117;-76
2022/05/10 04:04:39;;;;;;;12.30;5.43;;;;;;;6.11;77.00;100815.63;5095723;28;20075;-74
2022/05/10 04:07:08;;;;;;;14.60;5.72;;;;;;;6.03;77.12;100827.41;5095706;28;20417;-74
2022/05/10 04:09:36;;;;;;;15.50;6.45;;;;;;;6.20;76.59;100826.16;5095627;28;20048;-75
2022/05/10 04:12:04;;;;;;;15.10;6.80;;;;;;;6.22;77.21;100821.63;5095367;28;20439;-75
2022/05/10 04:14:32;;;;;;;12.02;5.88;;;;;;;6.28;76.78;100818.78;5095072;28;20401;-74
2022/05/10 04:16:59;;;;;;;15.68;6.10;;;;;;;6.36;76.82;100819.53;5095474;28;20118;-74
2022/05/10 04:19:27;;;;;;;12.93;6.03;;;;;;;6.59;76.20;100818.06;5095485;28;20048;-74
2022/05/10 04:21:55;;;;;;;13.65;5.78;;;;;;;6.98;74.57;100817.13;5094798;28;20044;-77
2022/05/10 04:24:24;;;;;;;14.05;5.88;;;;;;;7.17;70.54;100816.63;5095523;28;20048;-75
2022/05/10 04:26:51;;;;;;;13.93;6.22;;;;;;;7.35;68.46;100820.63;5094940;28;20039;-73
2022/05/10 04:29:19;;;;;;;13.00;5.97;;;;;;;7.46;67.45;100813.16;5094966;28;20373;-74
2022/05/10 04:31:46;;;;;;;13.40;5.63;;;;;;;7.73;65.67;100812.41;5095071;28;20048;-75
2022/05/10 04:34:14;;;;;;;15.27;6.05;;;;;;;7.71;65.19;100816.94;5095078;28;20082;-74
2022/05/10 04:36:41;;;;;;;15.73;5.72;;;;;;;7.92;62.96;100815.44;5094531;28;20043;-74
2022/05/10 04:39:09;;;;;;;13.20;6.35;;;;;;;7.98;64.28;100815.28;5095028;28;20047;-74
2022/05/10 04:41:38;;;;;;;15.43;6.20;;;;;;;8.17;63.76;100823.66;5094648;28;20048;-75
2022/05/10 04:44:08;;;;;;;12.77;5.70;;;;;;;8.30;62.49;100824.16;5094869;28;20051;-74
2022/05/10 04:46:37;;;;;;;16.67;6.10;;;;;;;8.35;62.83;100824.88;5094608;28;20067;-74
2022/05/10 04:49:05;;;;;;;13.55;5.40;;;;;;;8.38;60.22;100824.81;5094694;28;20073;-74
2022/05/10 04:51:33;;;;;;;12.85;5.93;;;;;;;8.63;59.72;100818.66;5094740;28;20074;-75
2022/05/10 04:54:01;;;;;;;11.85;5.20;;;;;;;8.81;59.49;100821.69;5094692;28;20105;-74
2022/05/10 04:56:29;;;;;;;12.07;4.97;;;;;;;8.86;59.52;100832.28;5093908;28;20047;-74
2022/05/10 04:58:57;;;;;;;11.27;4.82;;;;;;;8.97;58.93;100827.41;5094234;28;20055;-74
2022/05/10 05:01:27;;;;;;;10.65;4.50;;;;;;;9.15;58.35;100830.44;5094494;28;20055;-76
2022/05/10 05:03:56;;;;;;;10.63;4.55;;;;;;;9.12;59.20;100821.50;5094578;28;20075;-74
2022/05/10 05:06:24;;;;;;;10.95;4.40;;;;;;;9.22;58.22;100822.09;5094512;28;20052;-74
2022/05/10 05:08:52;;;;;;;11.23;4.93;;;;;;;9.45;58.03;100820.38;5094059;28;20101;-73
2022/05/10 05:11:19;;;;;;;10.18;4.57;;;;;;;9.48;58.15;100816.69;5094440;28;20556;-77
2022/05/10 05:13:47;;;;;;;9.60;4.30;;;;;;;9.58;57.52;100818.09;5094298;28;20382;-74
2022/05/10 05:16:16;;;;;;;10.02;4.57;;;;;;;9.57;58.19;100817.22;5094031;28;20056;-74
2022/05/10 05:18:43;;;;;;;10.77;4.47;;;;;;;9.79;57.78;100811.03;5094184;28;20062;-76
2022/05/10 05:21:11;;;;;;;9.68;4.00;;;;;;;9.89;57.43;100807.97;5094423;28;20067;-76
2022/05/10 05:23:38;;;;;;;10.98;4.50;;;;;;;10.00;57.26;100816.56;5093877;28;20044;-75
2022/05/10 05:26:06;;;;;;;9.38;3.95;;;;;;;9.94;58.00;100819.47;5094203;28;20051;-76
2022/05/10 05:28:34;;;;;;;10.82;4.32;;;;;;;9.97;58.36;100819.34;5094049;28;20071;-76
2022/05/10 05:31:02;;;;;;;11.93;4.30;;;;;;;9.97;58.82;100819.34;5094201;28;20052;-74
2022/05/10 05:33:31;;;;;;;10.40;4.38;;;;;;;10.16;59.40;100811.41;5094462;28;20051;-76
2022/05/10 05:35:58;;;;;;;11.15;4.50;;;;;;;10.27;57.59;100811.91;5093905;28;20044;-74
2022/05/10 05:38:26;;;;;;;10.20;4.45;;;;;;;10.44;58.08;100813.06;5093847;28;20043;-75
2022/05/10 05:40:54;;;;;;;11.43;4.20;;;;;;;10.51;59.35;100819.97;5093727;28;20118;-74
2022/05/10 05:43:22;;;;;;;10.07;4.07;;;;;;;10.42;59.84;100820.34;5093963;28;20063;-74
2022/05/10 05:45:51;;;;;;;9.75;3.88;;;;;;;10.60;57.46;100821.44;5093702;28;20093;-74
2022/05/10 05:48:18;;;;;;;9.07;3.55;;;;;;;10.74;58.12;100826.28;5093007;28;20532;-74
2022/05/10 05:50:48;;;;;;;9.93;3.70;;;;;;;11.03;58.69;100824.19;5093607;28;20044;-75
2022/05/10 05:53:18;;;;;;;8.93;3.75;;;;;;;10.76;57.18;100815.38;5074662;28;20040;-74
2022/05/10 05:55:48;;;;;;;7.80;3.22;;;;;;;11.10;56.32;100817.56;5093675;28;20097;-74
2022/05/10 05:58:16;;;;;;;8.90;3.55;;;;;;;11.42;55.72;100817.09;5093516;28;20446;-74
2022/05/10 06:00:43;;;;;;;8.63;3.47;;;;;;;11.12;56.56;100817.47;5093624;28;20055;-74
2022/05/10 06:03:11;;;;;;;7.75;3.70;;;;;;;11.45;55.57;100816.94;5093347;28;20401;-75
2022/05/10 06:05:38;;;;;;;9.65;3.80;;;;;;;11.46;55.99;100807.88;5093431;28;20044;-74
2022/05/10 06:08:09;;;;;;;8.75;3.80;;;;;;;11.67;57.37;100811.44;5093164;28;20435;-76
2022/05/10 06:10:37;;;;;;;8.40;3.40;;;;;;;11.74;56.21;100804.78;5094526;28;20063;-76
2022/05/10 06:13:04;;;;;;;10.05;3.60;;;;;;;11.80;55.66;100803.66;5093560;28;20067;-76
2022/05/10 06:15:32;;;;;;;11.57;3.40;;;;;;;11.76;55.20;100810.16;5073995;28;20059;-77
2022/05/10 06:18:03;;;;;;;10.05;3.60;;;;;;;11.92;56.46;100810.31;5086666;28;20520;-75
2022/05/10 06:20:31;;;;;;;9.30;3.25;;;;;;;12.28;54.81;100797.84;5093492;28;20036;-76
2022/05/10 06:22:59;;;;;;;9.23;3.95;;;;;;;12.14;55.14;100791.28;5093116;28;20570;-76
2022/05/10 06:25:28;;;;;;;6.90;3.08;;;;;;;12.11;54.44;100790.53;5093307;28;20036;-76
2022/05/10 06:27:56;;;;;;;7.68;3.10;;;;;;;12.32;54.85;100791.31;5093180;28;20094;-78
2022/05/10 06:30:25;;;;;;;8.90;3.03;;;;;;;11.94;55.83;100794.00;5093289;28;20059;-82
2022/05/10 06:32:53;;;;;;;9.55;3.35;;;;;;;12.02;55.81;100792.72;5093236;28;20051;-81
2022/05/10 06:35:21;;;;;;;10.20;3.55;;;;;;;12.37;55.68;100783.84;5093071;28;20101;-78
2022/05/10 06:40:35;;;;;;;6.18;2.88;;;;;;;12.84;53.73;100786.97;5090761;28;20485;-80
2022/05/10 06:43:02;;;;;;;7.47;3.00;;;;;;;12.72;53.31;100778.50;5089129;28;20486;-82
2022/05/10 06:45:30;;;;;;;7.20;3.00;;;;;;;12.64;54.14;100775.31;5089922;28;20048;-81
2022/05/10 06:47:57;;;;;;;8.55;2.97;;;;;;;12.61;53.94;100779.03;5089421;28;20044;-81
2022/05/10 06:50:26;;;;;;;10.32;3.28;;;;;;;12.97;53.34;100774.56;5089104;28;20044;-83
2022/05/10 06:52:57;;;;;;;6.35;2.80;;;;;;;13.29;52.70;100773.81;5089515;28;20389;-83
2022/05/10 06:55:25;;;;;;;6.00;2.58;;;;;;;13.39;52.60;100775.06;5089877;28;20044;-79
2022/05/10 06:57:54;;;;;;;7.40;2.63;;;;;;;13.25;48.54;100775.81;5089334;28;20047;-82
2022/05/10 07:00:23;;;;;;;4.50;2.20;;;;;;;13.42;48.36;100774.03;5093507;28;20118;-73
2022/05/10 07:02:50;;;;;;;6.00;2.40;;;;;;;13.56;47.60;100773.34;5093370;28;20048;-76
2022/05/10 07:05:18;;;;;;;7.20;2.80;;;;;;;13.37;46.76;100770.72;5092568;28;20455;-76
2022/05/10 07:07:46;;;;;;;5.78;2.60;;;;;;;13.02;47.76;100772.47;5093631;28;20047;-77
2022/05/10 07:10:17;;;;;;;5.03;2.67;;;;;;;13.42;48.36;100772.22;5093123;28;20047;-74
2022/05/10 07:12:46;;;;;;;9.80;2.90;;;;;;;13.70;48.05;100767.16;5093843;28;20055;-76
2022/05/10 07:15:16;;;;;;;5.07;2.50;;;;;;;13.73;47.26;100764.28;5092812;28;20048;-76
2022/05/10 07:17:44;;;;;;;6.45;2.33;;;;;;;13.99;45.31;100754.69;5094108;28;20149;-75
2022/05/10 07:20:13;;;;;;;9.27;2.55;;;;;;;14.13;45.11;100748.47;5092973;28;20052;-76
2022/05/10 07:22:41;;;;;;;5.45;2.33;;;;;;;14.27;44.44;100749.50;5093042;28;20097;-77
2022/05/10 07:25:09;;;;;;;6.00;2.47;;;;;;;14.24;45.01;100757.84;5093095;28;20655;-77
2022/05/10 07:27:36;;;;;;;4.32;2.10;;;;;;;14.03;43.42;100750.81;5093067;28;20512;-75
2022/05/10 07:30:05;;;;;;;5.25;2.35;;;;;;;14.05;43.95;100738.03;5092459;28;20048;-76
2022/05/10 07:32:33;;;;;;;8.32;2.70;;;;;;;14.04;44.67;100752.56;5092928;28;20055;-76
2022/05/10 07:35:03;;;;;;;6.10;1.98;;;;;;;14.37;42.86;100756.16;5092387;28;20059;-76
2022/05/10 07:37:33;;;;;;;5.30;2.17;;;;;;;14.42;41.93;100742.31;5092679;28;20040;-77
2022/05/10 07:40:01;;;;;;;7.80;2.38;;;;;;;14.33;41.64;100746.44;5092656;28;20424;-74
2022/05/10 07:42:29;;;;;;;5.40;2.15;;;;;;;14.52;42.24;100745.38;5092131;28;20044;-73
2022/05/10 07:44:56;;;;;;;5.60;2.35;;;;;;;14.61;42.86;100748.41;5092553;28;20040;-73
2022/05/10 07:47:24;;;;;;;6.13;2.20;;;;;;;14.76;43.25;100738.50;5092683;28;20054;-74
2022/05/10 07:49:53;;;;;;;9.95;2.78;;;;;;;14.15;43.14;100749.25;5092033;28;20044;-75
2022/05/10 07:52:20;;;;;;;7.35;2.42;;;;;;;14.70;43.09;100733.44;5092249;28;20052;-73
2022/05/10 07:54:48;;;;;;;5.32;2.40;;;;;;;14.58;41.93;100736.84;5092115;28;20071;-73
2022/05/10 07:57:15;;;;;;;5.40;2.00;;;;;;;14.72;40.53;100739.66;5092464;28;20501;-73
2022/05/10 07:59:43;;;;;;;4.72;2.10;;;;;;;14.89;39.46;100743.19;5092247;28;20048;-75
2022/05/10 08:02:10;;;;;;;3.72;1.95;;;;;;;14.82;39.95;100747.25;5092417;28;20052;-76
2022/05/10 08:04:38;;;;;;;3.90;1.77;;;;;;;14.91;37.80;100747.59;5091891;28;20051;-73
2022/05/10 08:07:07;;;;;;;4.53;1.90;;;;;;;15.11;39.58;100734.63;5091936;28;20067;-73
2022/05/10 08:09:34;;;;;;;5.55;2.00;;;;;;;15.25;38.93;100736.47;5091852;28;20523;-74
2022/05/10 08:12:02;;;;;;;4.60;2.03;;;;;;;15.41;37.88;100739.13;5091737;28;20040;-74
2022/05/10 08:14:30;;;;;;;5.82;2.33;;;;;;;15.54;36.65;100736.50;5091759;28;20063;-80
2022/05/10 08:16:58;;;;;;;3.47;2.00;;;;;;;15.52;36.78;100737.59;5092043;28;20111;-75
2022/05/10 08:19:25;;;;;;;4.10;1.90;;;;;;;15.64;37.88;100737.69;5091194;28;20060;-76
2022/05/10 08:21:56;;;;;;;5.35;1.80;;;;;;;15.68;38.40;100734.75;5092004;28;20055;-81
2022/05/10 08:24:25;;;;;;;5.30;2.05;;;;;;;15.61;38.40;100732.44;5093543;28;20047;-75
2022/05/10 08:26:53;;;;;;;4.82;1.80;;;;;;;15.53;35.69;100742.94;5091941;28;20127;-74
2022/05/10 08:29:20;;;;;;;5.30;2.10;;;;;;;15.71;37.31;100731.88;5091337;28;20296;-79
2022/05/10 08:31:48;;;;;;;8.15;1.95;;;;;;;15.57;35.30;100730.88;5091506;28;20055;-82
2022/05/10 08:34:15;;;;;;;6.00;2.05;;;;;;;15.68;36.67;100729.31;5091819;28;20043;-74
2022/05/10 08:36:46;;;;;;;6.00;2.17;;;;;;;15.71;36.74;100734.59;5091718;28;20508;-74
2022/05/10 08:39:14;;;;;;;4.88;1.95;;;;;;;15.57;36.92;100728.16;5092837;28;20071;-75
2022/05/10 08:41:48;;;;;;;4.20;1.95;;;;;;;15.75;38.64;100728.81;5091404;28;20047;-75
2022/05/10 08:44:17;;;;;;;5.60;1.83;;;;;;;15.88;38.21;100726.22;5091856;28;20055;-73
2022/05/10 08:46:47;;;;;;;4.50;2.20;;;;;;;15.85;36.23;100734.56;5091183;28;20046;-76
2022/05/10 08:49:21;;;;;;;4.00;1.92;;;;;;;16.04;36.43;100720.66;5092399;28;20051;-73
2022/05/10 08:51:49;;;;;;;4.82;2.08;;;;;;;15.85;34.61;100723.66;5091341;28;20036;-76
2022/05/10 08:54:16;;;;;;;3.53;1.80;;;;;;;15.91;35.65;100714.28;5090988;28;20053;-74
2022/05/10 08:56:49;;;;;;;4.07;1.90;;;;;;;16.05;35.55;100713.34;5091479;28;20036;-73
2022/05/10 08:59:26;;;;;;;2.65;1.70;;;;;;;16.27;36.39;100707.34;5092318;28;20509;-73
2022/05/10 09:01:59;;;;;;;3.28;1.80;;;;;;;16.32;37.61;100701.59;5091885;28;20059;-73
2022/05/10 09:04:36;;;;;;;6.28;2.00;;;;;;;16.42;37.55;100705.44;5092624;28;20179;-73
2022/05/10 09:07:09;;;;;;;5.15;2.00;;;;;;;16.66;36.28;100702.91;5095075;28;20382;-72
2022/05/10 09:09:49;;;;;;;4.30;1.92;;;;;;;16.78;35.16;100700.34;5094371;28;20055;-73
2022/05/10 09:12:20;;;;;;;3.97;1.85;;;;;;;16.76;33.99;100707.75;5096474;28;20101;-74
2022/05/10 09:14:51;;;;;;;5.05;2.03;;;;;;;16.76;32.73;100705.88;5093942;28;20063;-72
2022/05/10 09:17:20;;;;;;;5.95;1.90;;;;;;;16.81;33.78;100711.03;5094817;28;20397;-73
2022/05/10 09:19:47;;;;;;;5.45;1.70;;;;;;;16.93;34.28;100710.16;5094442;28;20044;-73
2022/05/10 09:22:22;;;;;;;5.25;1.90;;;;;;;16.98;32.78;100703.53;5093357;28;20044;-74
2022/05/10 09:24:53;;;;;;;7.70;2.10;;;;;;;17.05;32.57;100705.75;5094975;28;20048;-73
2022/05/10 09:27:25;;;;;;;6.10;1.75;;;;;;;17.18;34.18;100707.59;5094443;28;20110;-72
2022/05/10 09:29:54;;;;;;;5.47;1.65;;;;;;;17.02;33.80;100707.81;5095013;28;20051;-73
2022/05/10 09:35:12;;;;;;;2.50;1.65;;;;;;;17.32;31.59;100699.31;5095623;28;20047;-71
2022/05/10 09:37:45;;;;;;;3.10;1.70;;;;;;;17.22;31.54;100698.22;5095767;28;20048;-72
2022/05/10 09:40:28;;;;;;;4.45;1.90;;;;;;;16.86;30.81;100697.94;5094347;28;20390;-72
2022/05/10 09:43:13;;;;;;;5.22;1.90;;;;;;;16.98;31.30;100689.91;5093873;28;20085;-72
2022/05/10 09:45:41;;;;;;;6.73;1.90;;;;;;;17.11;30.82;100687.19;5093537;28;20040;-73
2022/05/10 09:48:15;;;;;;;8.43;1.90;;;;;;;17.02;30.71;100689.59;5094125;28;20305;-73
2022/05/10 09:50:45;;;;;;;5.70;2.00;;;;;;;17.31;32.14;100677.59;5093855;28;20109;-73
2022/05/10 09:53:19;;;;;;;6.70;2.00;;;;;;;17.51;32.56;100677.00;5093510;28;20397;-73
2022/05/10 09:55:56;;;;;;;5.82;2.35;;;;;;;17.53;33.54;100668.72;5095155;28;20051;-72
2022/05/10 09:58:28;;;;;;;6.30;2.00;;;;;;;17.30;34.22;100668.50;5093700;28;20051;-72
2022/05/10 10:00:56;;;;;;;3.75;1.70;;;;;;;17.17;33.20;100654.00;5095318;28;20392;-72
2022/05/10 10:03:27;;;;;;;4.65;1.70;;;;;;;17.53;33.77;100645.00;5093528;28;20044;-72
2022/05/10 10:05:56;;;;;;;5.13;1.83;;;;;;;17.43;32.27;100645.81;5093428;28;20074;-72
2022/05/10 10:08:40;;;;;;;5.43;1.77;;;;;;;17.51;32.28;100641.50;5093536;28;20044;-73
2022/05/10 10:11:25;;;;;;;7.10;2.08;;;;;;;17.72;32.67;100637.31;5093516;28;20499;-73
2022/05/10 10:13:56;;;;;;;2.97;1.70;;;;;;;17.86;32.36;100630.81;5092784;28;20040;-73
2022/05/10 10:16:26;;;;;;;6.35;2.45;;;;;;;18.01;32.07;100632.47;5094956;28;20051;-73
2022/05/10 10:18:55;;;;;;;3.65;1.90;;;;;;;18.06;30.01;100634.81;5093518;28;20040;-72
2022/05/10 10:21:26;;;;;;;4.18;1.90;;;;;;;17.94;29.69;100629.28;5093326;28;20048;-73
2022/05/10 10:23:58;;;;;;;5.00;2.05;;;;;;;17.76;29.85;100623.31;5093282;28;20374;-73
2022/05/10 10:26:33;;;;;;;3.25;1.75;;;;;;;18.04;28.80;100626.75;5095028;28;20044;-73
2022/05/10 10:29:13;;;;;;;5.30;1.80;;;;;;;18.02;28.49;100628.75;5092943;28;20048;-73
2022/05/10 10:31:43;;;;;;;7.25;1.92;;;;;;;18.07;30.90;100632.00;5093178;28;20048;-72
2022/05/10 10:34:14;;;;;;;6.15;1.80;;;;;;;18.06;30.89;100622.06;5092772;28;20044;-73
2022/05/10 10:36:48;;;;;;;5.72;1.92;;;;;;;18.20;30.89;100623.75;5093870;28;20055;-72
2022/05/10 10:39:23;;;;;;;7.85;2.20;;;;;;;17.69;29.78;100621.16;5094236;28;20049;-73
2022/05/10 10:41:55;;;;;;;4.82;1.77;;;;;;;17.55;29.39;100619.47;5092986;28;20044;-73
2022/05/10 10:44:26;;;;;;;4.00;2.00;;;;;;;18.01;30.06;100615.19;5092614;28;20489;-73
2022/05/10 10:47:05;;;;;;;3.47;1.88;;;;;;;18.26;28.91;100625.09;5092974;28;20097;-73
2022/05/10 10:49:37;;;;;;;4.88;2.00;;;;;;;18.50;30.81;100614.13;5093220;28;20530;-72
2022/05/10 10:52:05;;;;;;;3.70;1.67;;;;;;;18.29;30.34;100605.72;5092965;28;20473;-73
2022/05/10 10:54:33;;;;;;;9.98;2.00;;;;;;;18.53;30.12;100600.22;5092949;28;20058;-72
2022/05/10 10:57:14;;;;;;;4.75;1.77;;;;;;;18.76;30.32;100597.56;5092577;28;20067;-72
2022/05/10 11:00:01;;;;;;;4.90;1.85;;;;;;;18.79;29.74;100594.56;5093022;28;20059;-72
2022/05/10 11:02:47;;;;;;;6.20;1.90;;;;;;;18.51;28.18;100591.25;5092847;28;20056;-72
2022/05/10 11:05:31;;;;;;;4.03;1.90;;;;;;;18.78;29.54;100592.84;5092770;28;20048;-72
2022/05/10 11:08:03;;;;;;;4.03;1.98;;;;;;;18.82;28.82;100594.31;5093900;28;20051;-72
2022/05/10 11:10:40;;;;;;;3.72;1.80;;;;;;;18.56;29.91;100579.09;5092788;28;20040;-73
2022/05/10 11:13:14;;;;;;;4.22;1.90;;;;;;;18.04;28.36;100576.69;5092519;28;20052;-73
2022/05/10 11:15:49;;;;;;;4.03;1.85;;;;;;;18.20;28.77;100574.53;5092533;28;20402;-72
2022/05/10 11:18:35;;;;;;;5.00;2.50;;;;;;;18.38;27.88;100563.16;5092970;28;20044;-73
2022/05/10 11:21:15;;;;;;;4.57;1.98;;;;;;;18.27;28.07;100554.91;5094468;28;20048;-72
2022/05/10 11:23:48;;;;;;;3.72;1.80;;;;;;;18.82;29.28;100556.03;5094491;28;20051;-72
2022/05/10 11:26:28;;;;;;;5.07;1.70;;;;;;;18.99;29.71;100540.16;5092415;28;20047;-71
2022/05/10 11:29:26;;;;;;;7.13;1.85;;;;;;;19.00;27.51;100539.16;5092855;28;20044;-73
2022/05/10 11:32:01;;;;;;;4.97;1.90;;;;;;;18.83;27.07;100537.75;5092701;28;20056;-72
2022/05/10 11:34:48;;;;;;;6.07;1.93;;;;;;;18.95;28.34;100527.66;5093822;28;20056;-72
2022/05/10 11:37:19;;;;;;;7.25;2.05;;;;;;;18.79;31.81;100531.66;5093383;28;20451;-71
2022/05/10 11:40:17;;;;;;;4.18;1.80;;;;;;;19.10;30.17;100523.72;5093917;28;20044;-72
2022/05/10 11:42:55;;;;;;;4.00;1.90;;;;;;;19.31;29.98;100522.09;5063461;28;20053;-72
2022/05/10 11:45:51;;;;;;;4.20;1.70;;;;;;;19.40;30.92;100519.47;5073311;28;20052;-72
2022/05/10 11:48:41;;;;;;;6.22;2.17;;;;;;;19.50;30.49;100516.81;5076094;28;20041;-72
2022/05/10 11:51:45;;;;;;;22.85;2.47;;;;;;;19.50;30.53;100515.94;5077255;28;20055;-72